< < Back
Terminal Aerodrome Forecast


Current Version              Previous Versions:   1  2  3  4  5  6  7  8  9  

Terminal Aerodrome Forecast

856
FTUS44 KMRX 301125
TAFCHA
TAF
KCHA 301125Z 3012/3112 VRB05KT P6SM SCT080 BKN250
     FM301800 18006KT P6SM VCTS BKN050CB OVC150
     FM310200 VRB03KT P6SM OVC100=

Latest METAR

144
SAUS80 KWBC 302000 RRB
MTRCHA
METAR KCHA 301953Z 19010KT 10SM SCT044 SCT055 SCT070 BKN250 32/19 A3006
RMK AO2 SLP170 T03170194 $


USA.gov is the U.S. government's official web portal to all federal, state and local government web resources and services.